sensor_id;sensor_type;location;lat;lon;timestamp;P1;durP1;ratioP1;P2;durP2;ratioP2
37777;SDS011;23615;51.506;7.678;2024-01-15T00:02:01;25.13;;;16.40;;
37777;SDS011;23615;51.506;7.678;2024-01-15T00:04:28;23.15;;;16.05;;
37777;SDS011;23615;51.506;7.678;2024-01-15T00:06:53;21.80;;;15.27;;
37777;SDS011;23615;51.506;7.678;2024-01-15T00:09:18;23.33;;;15.93;;
37777;SDS011;23615;51.506;7.678;2024-01-15T00:11:44;23.87;;;16.47;;
37777;SDS011;23615;51.506;7.678;2024-01-15T00:14:09;24.57;;;15.33;;
37777;SDS011;23615;51.506;7.678;2024-01-15T00:16:34;23.90;;;15.90;;
37777;SDS011;23615;51.506;7.678;2024-01-15T00:19:00;25.07;;;17.10;;
37777;SDS011;23615;51.506;7.678;2024-01-15T00:21:25;22.60;;;16.10;;
37777;SDS011;23615;51.506;7.678;2024-01-15T00:23:50;23.17;;;16.30;;
37777;SDS011;23615;51.506;7.678;2024-01-15T00:26:15;26.23;;;16.93;;
37777;SDS011;23615;51.506;7.678;2024-01-15T00:28:41;23.73;;;16.23;;
37777;SDS011;23615;51.506;7.678;2024-01-15T00:31:06;24.20;;;16.70;;
37777;SDS011;23615;51.506;7.678;2024-01-15T00:33:32;25.33;;;16.57;;
37777;SDS011;23615;51.506;7.678;2024-01-15T00:35:57;25.67;;;16.47;;
37777;SDS011;23615;51.506;7.678;2024-01-15T00:38:22;24.67;;;17.63;;
37777;SDS011;23615;51.506;7.678;2024-01-15T00:40:48;27.80;;;18.23;;
37777;SDS011;23615;51.506;7.678;2024-01-15T00:43:13;28.37;;;18.23;;
37777;SDS011;23615;51.506;7.678;2024-01-15T00:45:38;29.87;;;19.77;;
37777;SDS011;23615;51.506;7.678;2024-01-15T00:48:04;30.23;;;19.90;;
37777;SDS011;23615;51.506;7.678;2024-01-15T00:50:30;29.63;;;19.23;;
37777;SDS011;23615;51.506;7.678;2024-01-15T00:52:55;28.87;;;19.30;;
37777;SDS011;23615;51.506;7.678;2024-01-15T00:55:20;30.43;;;19.90;;
37777;SDS011;23615;51.506;7.678;2024-01-15T00:57:45;31.23;;;18.73;;
37777;SDS011;23615;51.506;7.678;2024-01-15T01:00:11;30.23;;;20.13;;
37777;SDS011;23615;51.506;7.678;2024-01-15T01:02:37;30.93;;;20.00;;
37777;SDS011;23615;51.506;7.678;2024-01-15T01:05:02;30.70;;;19.20;;
37777;SDS011;23615;51.506;7.678;2024-01-15T01:07:28;34.05;;;20.65;;
37777;SDS011;23615;51.506;7.678;2024-01-15T01:09:53;30.07;;;19.50;;
37777;SDS011;23615;51.506;7.678;2024-01-15T01:12:18;27.33;;;18.63;;
37777;SDS011;23615;51.506;7.678;2024-01-15T01:14:44;30.07;;;18.90;;
37777;SDS011;23615;51.506;7.678;2024-01-15T01:17:09;29.07;;;19.33;;
37777;SDS011;23615;51.506;7.678;2024-01-15T01:19:34;28.73;;;18.17;;
37777;SDS011;23615;51.506;7.678;2024-01-15T01:21:59;29.40;;;18.87;;
37777;SDS011;23615;51.506;7.678;2024-01-15T01:24:25;27.43;;;19.00;;
37777;SDS011;23615;51.506;7.678;2024-01-15T01:26:50;25.20;;;19.30;;
37777;SDS011;23615;51.506;7.678;2024-01-15T01:29:15;30.60;;;18.93;;
37777;SDS011;23615;51.506;7.678;2024-01-15T01:31:44;28.17;;;18.23;;
37777;SDS011;23615;51.506;7.678;2024-01-15T01:34:10;30.45;;;19.80;;
37777;SDS011;23615;51.506;7.678;2024-01-15T01:36:36;31.85;;;20.00;;
37777;SDS011;23615;51.506;7.678;2024-01-15T01:39:01;33.80;;;20.52;;
37777;SDS011;23615;51.506;7.678;2024-01-15T01:41:26;31.60;;;19.70;;
37777;SDS011;23615;51.506;7.678;2024-01-15T01:43:52;30.03;;;18.73;;
37777;SDS011;23615;51.506;7.678;2024-01-15T01:46:17;29.77;;;19.57;;
37777;SDS011;23615;51.506;7.678;2024-01-15T01:48:42;32.10;;;19.93;;
37777;SDS011;23615;51.506;7.678;2024-01-15T01:51:08;30.33;;;19.10;;
37777;SDS011;23615;51.506;7.678;2024-01-15T01:53:34;31.02;;;19.38;;
37777;SDS011;23615;51.506;7.678;2024-01-15T01:56:02;32.28;;;19.83;;
37777;SDS011;23615;51.506;7.678;2024-01-15T01:58:29;28.50;;;19.13;;
37777;SDS011;23615;51.506;7.678;2024-01-15T02:00:57;27.00;;;18.25;;
37777;SDS011;23615;51.506;7.678;2024-01-15T02:03:23;24.80;;;17.42;;
37777;SDS011;23615;51.506;7.678;2024-01-15T02:05:49;26.00;;;16.60;;
37777;SDS011;23615;51.506;7.678;2024-01-15T02:08:14;25.73;;;16.88;;
37777;SDS011;23615;51.506;7.678;2024-01-15T02:10:40;26.83;;;16.10;;
37777;SDS011;23615;51.506;7.678;2024-01-15T02:13:05;29.30;;;17.87;;
37777;SDS011;23615;51.506;7.678;2024-01-15T02:15:30;26.10;;;17.47;;
37777;SDS011;23615;51.506;7.678;2024-01-15T02:18:05;24.77;;;16.37;;
37777;SDS011;23615;51.506;7.678;2024-01-15T02:20:32;29.15;;;17.13;;
37777;SDS011;23615;51.506;7.678;2024-01-15T02:23:11;28.40;;;19.00;;
37777;SDS011;23615;51.506;7.678;2024-01-15T02:25:38;27.42;;;18.25;;
37777;SDS011;23615;51.506;7.678;2024-01-15T02:28:05;28.08;;;17.73;;
37777;SDS011;23615;51.506;7.678;2024-01-15T02:30:34;27.47;;;17.63;;
37777;SDS011;23615;51.506;7.678;2024-01-15T02:33:02;25.35;;;15.70;;
37777;SDS011;23615;51.506;7.678;2024-01-15T02:35:28;26.17;;;16.50;;
37777;SDS011;23615;51.506;7.678;2024-01-15T02:37:53;26.50;;;16.00;;
37777;SDS011;23615;51.506;7.678;2024-01-15T02:40:18;24.37;;;16.50;;
37777;SDS011;23615;51.506;7.678;2024-01-15T02:42:43;26.13;;;16.60;;
37777;SDS011;23615;51.506;7.678;2024-01-15T02:45:09;25.60;;;16.47;;
37777;SDS011;23615;51.506;7.678;2024-01-15T02:47:34;28.03;;;15.27;;
37777;SDS011;23615;51.506;7.678;2024-01-15T02:49:59;23.80;;;15.23;;
37777;SDS011;23615;51.506;7.678;2024-01-15T02:52:24;23.53;;;15.53;;
37777;SDS011;23615;51.506;7.678;2024-01-15T02:54:50;22.30;;;14.70;;
37777;SDS011;23615;51.506;7.678;2024-01-15T02:57:15;25.37;;;15.03;;
37777;SDS011;23615;51.506;7.678;2024-01-15T02:59:40;24.67;;;15.83;;
37777;SDS011;23615;51.506;7.678;2024-01-15T03:02:05;21.73;;;14.50;;
37777;SDS011;23615;51.506;7.678;2024-01-15T03:04:31;22.20;;;14.20;;
37777;SDS011;23615;51.506;7.678;2024-01-15T03:06:56;23.00;;;15.23;;
37777;SDS011;23615;51.506;7.678;2024-01-15T03:09:21;26.13;;;15.77;;
37777;SDS011;23615;51.506;7.678;2024-01-15T03:11:47;23.83;;;14.90;;
37777;SDS011;23615;51.506;7.678;2024-01-15T03:14:13;21.85;;;14.15;;
37777;SDS011;23615;51.506;7.678;2024-01-15T03:16:38;20.53;;;13.63;;
37777;SDS011;23615;51.506;7.678;2024-01-15T03:19:04;24.90;;;15.57;;
37777;SDS011;23615;51.506;7.678;2024-01-15T03:21:29;21.47;;;14.07;;
37777;SDS011;23615;51.506;7.678;2024-01-15T03:23:54;23.93;;;15.00;;
37777;SDS011;23615;51.506;7.678;2024-01-15T03:26:19;21.70;;;14.63;;
37777;SDS011;23615;51.506;7.678;2024-01-15T03:28:45;21.07;;;13.87;;
37777;SDS011;23615;51.506;7.678;2024-01-15T03:31:10;23.27;;;14.40;;
37777;SDS011;23615;51.506;7.678;2024-01-15T03:33:35;21.67;;;12.90;;
37777;SDS011;23615;51.506;7.678;2024-01-15T03:36:00;20.43;;;13.53;;
37777;SDS011;23615;51.506;7.678;2024-01-15T03:38:28;20.83;;;13.63;;
37777;SDS011;23615;51.506;7.678;2024-01-15T03:40:53;20.65;;;13.98;;
37777;SDS011;23615;51.506;7.678;2024-01-15T03:43:18;21.33;;;14.13;;
37777;SDS011;23615;51.506;7.678;2024-01-15T03:45:44;20.67;;;13.40;;
37777;SDS011;23615;51.506;7.678;2024-01-15T03:48:09;20.17;;;13.27;;
37777;SDS011;23615;51.506;7.678;2024-01-15T03:50:34;20.03;;;13.47;;
37777;SDS011;23615;51.506;7.678;2024-01-15T03:52:59;22.67;;;14.30;;
37777;SDS011;23615;51.506;7.678;2024-01-15T03:55:25;21.53;;;13.57;;
37777;SDS011;23615;51.506;7.678;2024-01-15T03:57:50;21.27;;;13.63;;
37777;SDS011;23615;51.506;7.678;2024-01-15T04:00:15;22.00;;;13.20;;
37777;SDS011;23615;51.506;7.678;2024-01-15T04:02:42;24.23;;;13.55;;
37777;SDS011;23615;51.506;7.678;2024-01-15T04:05:08;20.58;;;13.43;;
37777;SDS011;23615;51.506;7.678;2024-01-15T04:07:33;21.67;;;13.13;;
37777;SDS011;23615;51.506;7.678;2024-01-15T04:09:58;21.70;;;13.77;;
37777;SDS011;23615;51.506;7.678;2024-01-15T04:12:24;19.83;;;13.40;;
37777;SDS011;23615;51.506;7.678;2024-01-15T04:14:50;20.30;;;13.48;;
37777;SDS011;23615;51.506;7.678;2024-01-15T04:17:15;22.67;;;13.20;;
37777;SDS011;23615;51.506;7.678;2024-01-15T04:19:43;20.90;;;13.90;;
37777;SDS011;23615;51.506;7.678;2024-01-15T04:22:09;19.88;;;13.75;;
37777;SDS011;23615;51.506;7.678;2024-01-15T04:24:34;23.20;;;13.40;;
37777;SDS011;23615;51.506;7.678;2024-01-15T04:26:59;22.03;;;12.43;;
37777;SDS011;23615;51.506;7.678;2024-01-15T04:29:25;16.57;;;12.03;;
37777;SDS011;23615;51.506;7.678;2024-01-15T04:31:50;19.70;;;12.33;;
37777;SDS011;23615;51.506;7.678;2024-01-15T04:34:16;18.30;;;11.60;;
37777;SDS011;23615;51.506;7.678;2024-01-15T04:36:42;19.33;;;12.30;;
37777;SDS011;23615;51.506;7.678;2024-01-15T04:39:07;17.70;;;11.70;;
37777;SDS011;23615;51.506;7.678;2024-01-15T04:41:32;16.33;;;11.93;;
37777;SDS011;23615;51.506;7.678;2024-01-15T04:43:58;15.75;;;11.18;;
37777;SDS011;23615;51.506;7.678;2024-01-15T04:46:25;17.20;;;11.07;;
37777;SDS011;23615;51.506;7.678;2024-01-15T04:48:50;18.57;;;10.97;;
37777;SDS011;23615;51.506;7.678;2024-01-15T04:51:16;15.07;;;10.68;;
37777;SDS011;23615;51.506;7.678;2024-01-15T04:53:41;16.00;;;10.40;;
37777;SDS011;23615;51.506;7.678;2024-01-15T04:56:06;19.17;;;10.53;;
37777;SDS011;23615;51.506;7.678;2024-01-15T04:58:31;15.87;;;9.87;;
37777;SDS011;23615;51.506;7.678;2024-01-15T05:00:57;14.93;;;10.35;;
37777;SDS011;23615;51.506;7.678;2024-01-15T05:03:22;15.50;;;10.37;;
37777;SDS011;23615;51.506;7.678;2024-01-15T05:05:47;14.30;;;10.07;;
37777;SDS011;23615;51.506;7.678;2024-01-15T05:08:13;16.30;;;10.27;;
37777;SDS011;23615;51.506;7.678;2024-01-15T05:10:38;16.30;;;10.03;;
37777;SDS011;23615;51.506;7.678;2024-01-15T05:13:03;15.03;;;9.60;;
37777;SDS011;23615;51.506;7.678;2024-01-15T05:15:28;15.38;;;9.32;;
37777;SDS011;23615;51.506;7.678;2024-01-15T05:17:54;14.85;;;9.13;;
37777;SDS011;23615;51.506;7.678;2024-01-15T05:20:19;14.23;;;9.20;;
37777;SDS011;23615;51.506;7.678;2024-01-15T05:22:45;14.03;;;9.23;;
37777;SDS011;23615;51.506;7.678;2024-01-15T05:25:10;15.43;;;10.70;;
37777;SDS011;23615;51.506;7.678;2024-01-15T05:27:35;15.60;;;9.90;;
37777;SDS011;23615;51.506;7.678;2024-01-15T05:30:00;15.43;;;10.00;;
37777;SDS011;23615;51.506;7.678;2024-01-15T05:32:26;16.43;;;10.60;;
37777;SDS011;23615;51.506;7.678;2024-01-15T05:34:51;17.03;;;10.23;;
37777;SDS011;23615;51.506;7.678;2024-01-15T05:37:16;17.93;;;10.73;;
37777;SDS011;23615;51.506;7.678;2024-01-15T05:39:41;20.30;;;10.37;;
37777;SDS011;23615;51.506;7.678;2024-01-15T05:42:07;15.63;;;10.57;;
37777;SDS011;23615;51.506;7.678;2024-01-15T05:44:32;15.27;;;10.70;;
37777;SDS011;23615;51.506;7.678;2024-01-15T05:46:57;13.77;;;10.33;;
37777;SDS011;23615;51.506;7.678;2024-01-15T05:49:22;17.27;;;11.03;;
37777;SDS011;23615;51.506;7.678;2024-01-15T05:51:48;16.43;;;11.00;;
37777;SDS011;23615;51.506;7.678;2024-01-15T05:54:13;19.23;;;10.60;;
37777;SDS011;23615;51.506;7.678;2024-01-15T05:56:38;15.10;;;10.53;;
37777;SDS011;23615;51.506;7.678;2024-01-15T05:59:04;13.57;;;10.10;;
37777;SDS011;23615;51.506;7.678;2024-01-15T06:01:29;15.07;;;10.03;;
37777;SDS011;23615;51.506;7.678;2024-01-15T06:03:54;18.00;;;9.77;;
37777;SDS011;23615;51.506;7.678;2024-01-15T06:06:20;13.70;;;9.50;;
37777;SDS011;23615;51.506;7.678;2024-01-15T06:08:45;14.60;;;9.57;;
37777;SDS011;23615;51.506;7.678;2024-01-15T06:11:10;13.87;;;9.07;;
37777;SDS011;23615;51.506;7.678;2024-01-15T06:13:35;14.23;;;9.50;;
37777;SDS011;23615;51.506;7.678;2024-01-15T06:16:01;16.50;;;9.20;;
37777;SDS011;23615;51.506;7.678;2024-01-15T06:18:26;11.60;;;9.13;;
37777;SDS011;23615;51.506;7.678;2024-01-15T06:20:51;14.87;;;9.57;;
37777;SDS011;23615;51.506;7.678;2024-01-15T06:23:17;12.63;;;8.63;;
37777;SDS011;23615;51.506;7.678;2024-01-15T06:25:42;13.30;;;8.90;;
37777;SDS011;23615;51.506;7.678;2024-01-15T06:28:07;16.07;;;9.90;;
37777;SDS011;23615;51.506;7.678;2024-01-15T06:30:32;13.63;;;9.93;;
37777;SDS011;23615;51.506;7.678;2024-01-15T06:32:58;16.80;;;10.80;;
37777;SDS011;23615;51.506;7.678;2024-01-15T06:35:23;14.10;;;10.53;;
37777;SDS011;23615;51.506;7.678;2024-01-15T06:37:48;17.00;;;11.13;;
37777;SDS011;23615;51.506;7.678;2024-01-15T06:40:13;15.53;;;10.93;;
37777;SDS011;23615;51.506;7.678;2024-01-15T06:42:39;15.57;;;10.53;;
37777;SDS011;23615;51.506;7.678;2024-01-15T06:45:04;13.10;;;9.70;;
37777;SDS011;23615;51.506;7.678;2024-01-15T06:47:30;16.90;;;9.47;;
37777;SDS011;23615;51.506;7.678;2024-01-15T06:49:57;14.57;;;9.60;;
37777;SDS011;23615;51.506;7.678;2024-01-15T06:52:23;13.88;;;9.98;;
37777;SDS011;23615;51.506;7.678;2024-01-15T06:54:49;14.67;;;9.20;;
37777;SDS011;23615;51.506;7.678;2024-01-15T06:57:14;15.50;;;10.47;;
37777;SDS011;23615;51.506;7.678;2024-01-15T06:59:39;15.20;;;10.20;;
37777;SDS011;23615;51.506;7.678;2024-01-15T07:02:05;14.43;;;10.73;;
37777;SDS011;23615;51.506;7.678;2024-01-15T07:04:30;15.77;;;9.77;;
37777;SDS011;23615;51.506;7.678;2024-01-15T07:06:55;10.53;;;8.83;;
37777;SDS011;23615;51.506;7.678;2024-01-15T07:09:21;14.35;;;9.70;;
37777;SDS011;23615;51.506;7.678;2024-01-15T07:11:46;14.55;;;9.10;;
37777;SDS011;23615;51.506;7.678;2024-01-15T07:14:11;14.25;;;9.75;;
37777;SDS011;23615;51.506;7.678;2024-01-15T07:16:37;14.30;;;9.98;;
37777;SDS011;23615;51.506;7.678;2024-01-15T07:19:02;12.83;;;9.83;;
37777;SDS011;23615;51.506;7.678;2024-01-15T07:21:27;17.93;;;10.40;;
37777;SDS011;23615;51.506;7.678;2024-01-15T07:23:53;15.37;;;9.77;;
37777;SDS011;23615;51.506;7.678;2024-01-15T07:26:18;14.07;;;10.23;;
37777;SDS011;23615;51.506;7.678;2024-01-15T07:28:43;14.67;;;10.53;;
37777;SDS011;23615;51.506;7.678;2024-01-15T07:31:08;14.60;;;10.53;;
37777;SDS011;23615;51.506;7.678;2024-01-15T07:33:34;14.63;;;10.03;;
37777;SDS011;23615;51.506;7.678;2024-01-15T07:35:59;15.23;;;10.43;;
37777;SDS011;23615;51.506;7.678;2024-01-15T07:38:24;13.53;;;10.00;;
37777;SDS011;23615;51.506;7.678;2024-01-15T07:40:49;17.90;;;10.87;;
37777;SDS011;23615;51.506;7.678;2024-01-15T07:43:15;17.23;;;10.37;;
37777;SDS011;23615;51.506;7.678;2024-01-15T07:45:40;15.63;;;10.82;;
37777;SDS011;23615;51.506;7.678;2024-01-15T07:48:06;13.13;;;10.30;;
37777;SDS011;23615;51.506;7.678;2024-01-15T07:50:31;14.23;;;10.97;;
37777;SDS011;23615;51.506;7.678;2024-01-15T07:52:56;15.63;;;11.30;;
37777;SDS011;23615;51.506;7.678;2024-01-15T07:55:22;15.93;;;11.13;;
37777;SDS011;23615;51.506;7.678;2024-01-15T07:57:47;15.03;;;11.07;;
37777;SDS011;23615;51.506;7.678;2024-01-15T08:00:13;15.93;;;10.87;;
37777;SDS011;23615;51.506;7.678;2024-01-15T08:02:38;14.38;;;10.70;;
37777;SDS011;23615;51.506;7.678;2024-01-15T08:05:04;14.13;;;10.33;;
37777;SDS011;23615;51.506;7.678;2024-01-15T08:07:29;14.03;;;10.87;;
37777;SDS011;23615;51.506;7.678;2024-01-15T08:09:54;12.87;;;9.80;;
37777;SDS011;23615;51.506;7.678;2024-01-15T08:12:20;15.77;;;10.30;;
37777;SDS011;23615;51.506;7.678;2024-01-15T08:14:45;11.53;;;8.83;;
37777;SDS011;23615;51.506;7.678;2024-01-15T08:17:10;12.93;;;9.90;;
37777;SDS011;23615;51.506;7.678;2024-01-15T08:19:36;13.83;;;9.50;;
37777;SDS011;23615;51.506;7.678;2024-01-15T08:22:01;10.90;;;8.60;;
37777;SDS011;23615;51.506;7.678;2024-01-15T08:24:26;12.23;;;7.60;;
37777;SDS011;23615;51.506;7.678;2024-01-15T08:26:52;10.27;;;7.63;;
37777;SDS011;23615;51.506;7.678;2024-01-15T08:29:17;9.40;;;7.27;;
37777;SDS011;23615;51.506;7.678;2024-01-15T08:31:43;9.18;;;6.95;;
37777;SDS011;23615;51.506;7.678;2024-01-15T08:34:09;10.00;;;6.85;;
37777;SDS011;23615;51.506;7.678;2024-01-15T08:36:34;8.70;;;6.75;;
37777;SDS011;23615;51.506;7.678;2024-01-15T08:39:01;9.23;;;6.53;;
37777;SDS011;23615;51.506;7.678;2024-01-15T08:41:26;8.67;;;6.37;;
37777;SDS011;23615;51.506;7.678;2024-01-15T08:43:51;7.63;;;6.13;;
37777;SDS011;23615;51.506;7.678;2024-01-15T08:46:18;8.38;;;6.82;;
37777;SDS011;23615;51.506;7.678;2024-01-15T08:48:43;8.17;;;5.97;;
37777;SDS011;23615;51.506;7.678;2024-01-15T08:51:08;8.30;;;5.83;;
37777;SDS011;23615;51.506;7.678;2024-01-15T08:53:33;6.60;;;5.87;;
37777;SDS011;23615;51.506;7.678;2024-01-15T08:55:59;7.40;;;5.90;;
37777;SDS011;23615;51.506;7.678;2024-01-15T08:58:24;6.73;;;5.87;;
37777;SDS011;23615;51.506;7.678;2024-01-15T09:00:50;9.45;;;6.43;;
37777;SDS011;23615;51.506;7.678;2024-01-15T09:03:16;8.65;;;7.43;;
37777;SDS011;23615;51.506;7.678;2024-01-15T09:05:41;8.80;;;7.30;;
37777;SDS011;23615;51.506;7.678;2024-01-15T09:08:07;10.05;;;8.23;;
37777;SDS011;23615;51.506;7.678;2024-01-15T09:10:32;12.47;;;8.60;;
37777;SDS011;23615;51.506;7.678;2024-01-15T09:12:58;11.17;;;8.60;;
37777;SDS011;23615;51.506;7.678;2024-01-15T09:15:23;10.30;;;8.33;;
37777;SDS011;23615;51.506;7.678;2024-01-15T09:17:49;10.30;;;7.90;;
37777;SDS011;23615;51.506;7.678;2024-01-15T09:20:14;9.97;;;8.30;;
37777;SDS011;23615;51.506;7.678;2024-01-15T09:22:40;10.73;;;8.57;;
37777;SDS011;23615;51.506;7.678;2024-01-15T09:25:07;11.07;;;8.52;;
37777;SDS011;23615;51.506;7.678;2024-01-15T09:27:33;11.20;;;8.73;;
37777;SDS011;23615;51.506;7.678;2024-01-15T09:29:59;10.50;;;8.50;;
37777;SDS011;23615;51.506;7.678;2024-01-15T09:32:24;10.77;;;8.67;;
37777;SDS011;23615;51.506;7.678;2024-01-15T09:34:49;11.47;;;8.43;;
37777;SDS011;23615;51.506;7.678;2024-01-15T09:37:15;9.70;;;8.30;;
37777;SDS011;23615;51.506;7.678;2024-01-15T09:39:40;9.80;;;8.30;;
37777;SDS011;23615;51.506;7.678;2024-01-15T09:42:06;8.90;;;8.00;;
37777;SDS011;23615;51.506;7.678;2024-01-15T09:44:32;11.68;;;8.85;;
37777;SDS011;23615;51.506;7.678;2024-01-15T09:46:57;9.53;;;8.40;;
37777;SDS011;23615;51.506;7.678;2024-01-15T09:49:23;10.17;;;8.60;;
37777;SDS011;23615;51.506;7.678;2024-01-15T09:51:48;10.38;;;8.77;;
37777;SDS011;23615;51.506;7.678;2024-01-15T09:54:14;10.00;;;8.02;;
37777;SDS011;23615;51.506;7.678;2024-01-15T09:56:42;11.93;;;7.68;;
37777;SDS011;23615;51.506;7.678;2024-01-15T09:59:11;8.95;;;8.10;;
37777;SDS011;23615;51.506;7.678;2024-01-15T10:01:47;9.23;;;7.88;;
37777;SDS011;23615;51.506;7.678;2024-01-15T10:04:15;8.95;;;7.85;;
37777;SDS011;23615;51.506;7.678;2024-01-15T10:06:42;9.20;;;8.20;;
37777;SDS011;23615;51.506;7.678;2024-01-15T10:09:11;10.13;;;8.63;;
37777;SDS011;23615;51.506;7.678;2024-01-15T10:11:39;9.27;;;7.95;;
37777;SDS011;23615;51.506;7.678;2024-01-15T10:14:05;10.15;;;7.80;;
37777;SDS011;23615;51.506;7.678;2024-01-15T10:16:31;9.00;;;7.70;;
37777;SDS011;23615;51.506;7.678;2024-01-15T10:18:56;8.40;;;7.50;;
37777;SDS011;23615;51.506;7.678;2024-01-15T10:21:21;9.10;;;7.40;;
37777;SDS011;23615;51.506;7.678;2024-01-15T10:23:47;9.03;;;7.77;;
37777;SDS011;23615;51.506;7.678;2024-01-15T10:26:12;8.37;;;7.00;;
37777;SDS011;23615;51.506;7.678;2024-01-15T10:28:37;7.67;;;6.17;;
37777;SDS011;23615;51.506;7.678;2024-01-15T10:31:03;8.83;;;6.60;;
37777;SDS011;23615;51.506;7.678;2024-01-15T10:33:29;6.25;;;5.50;;
37777;SDS011;23615;51.506;7.678;2024-01-15T10:35:55;6.32;;;5.25;;
37777;SDS011;23615;51.506;7.678;2024-01-15T10:38:22;6.53;;;4.82;;
37777;SDS011;23615;51.506;7.678;2024-01-15T10:40:55;5.93;;;4.65;;
37777;SDS011;23615;51.506;7.678;2024-01-15T10:43:21;7.90;;;4.90;;
37777;SDS011;23615;51.506;7.678;2024-01-15T10:45:50;4.93;;;4.35;;
37777;SDS011;23615;51.506;7.678;2024-01-15T10:48:17;6.45;;;5.13;;
37777;SDS011;23615;51.506;7.678;2024-01-15T10:50:44;7.05;;;5.22;;
37777;SDS011;23615;51.506;7.678;2024-01-15T10:53:11;5.78;;;4.53;;
37777;SDS011;23615;51.506;7.678;2024-01-15T10:55:37;5.45;;;4.90;;
37777;SDS011;23615;51.506;7.678;2024-01-15T10:58:04;6.07;;;4.65;;
37777;SDS011;23615;51.506;7.678;2024-01-15T11:00:33;7.50;;;4.30;;
37777;SDS011;23615;51.506;7.678;2024-01-15T11:03:00;7.00;;;4.40;;
37777;SDS011;23615;51.506;7.678;2024-01-15T11:05:27;6.32;;;4.45;;
37777;SDS011;23615;51.506;7.678;2024-01-15T11:07:54;7.57;;;4.80;;
37777;SDS011;23615;51.506;7.678;2024-01-15T11:13:15;7.82;;;5.45;;
37777;SDS011;23615;51.506;7.678;2024-01-15T11:15:57;7.18;;;5.38;;
37777;SDS011;23615;51.506;7.678;2024-01-15T11:18:33;8.40;;;6.00;;
37777;SDS011;23615;51.506;7.678;2024-01-15T11:23:45;8.05;;;6.63;;
37777;SDS011;23615;51.506;7.678;2024-01-15T11:34:03;10.53;;;6.33;;
37777;SDS011;23615;51.506;7.678;2024-01-15T11:41:51;7.95;;;6.47;;
37777;SDS011;23615;51.506;7.678;2024-01-15T11:44:17;9.73;;;6.63;;
37777;SDS011;23615;51.506;7.678;2024-01-15T11:46:43;10.93;;;6.70;;
37777;SDS011;23615;51.506;7.678;2024-01-15T11:52:12;7.40;;;6.60;;
37777;SDS011;23615;51.506;7.678;2024-01-15T11:54:41;8.85;;;6.55;;
37777;SDS011;23615;51.506;7.678;2024-01-15T11:57:18;11.63;;;7.13;;
37777;SDS011;23615;51.506;7.678;2024-01-15T11:59:50;7.87;;;6.70;;
37777;SDS011;23615;51.506;7.678;2024-01-15T12:02:16;7.07;;;6.18;;
37777;SDS011;23615;51.506;7.678;2024-01-15T12:04:41;12.00;;;6.17;;
37777;SDS011;23615;51.506;7.678;2024-01-15T12:07:06;7.63;;;5.23;;
37777;SDS011;23615;51.506;7.678;2024-01-15T12:09:31;10.25;;;5.57;;
37777;SDS011;23615;51.506;7.678;2024-01-15T12:12:02;6.78;;;5.35;;
37777;SDS011;23615;51.506;7.678;2024-01-15T12:14:32;8.20;;;5.80;;
37777;SDS011;23615;51.506;7.678;2024-01-15T12:16:59;10.80;;;5.75;;
37777;SDS011;23615;51.506;7.678;2024-01-15T12:19:25;7.30;;;5.13;;
37777;SDS011;23615;51.506;7.678;2024-01-15T12:21:51;5.70;;;5.15;;
37777;SDS011;23615;51.506;7.678;2024-01-15T12:24:19;6.93;;;5.53;;
37777;SDS011;23615;51.506;7.678;2024-01-15T12:26:45;8.52;;;5.50;;
37777;SDS011;23615;51.506;7.678;2024-01-15T12:29:11;7.70;;;5.57;;
37777;SDS011;23615;51.506;7.678;2024-01-15T12:31:36;7.38;;;4.93;;
37777;SDS011;23615;51.506;7.678;2024-01-15T12:34:02;8.55;;;5.47;;
37777;SDS011;23615;51.506;7.678;2024-01-15T12:36:30;7.90;;;6.00;;
37777;SDS011;23615;51.506;7.678;2024-01-15T12:38:58;10.23;;;6.97;;
37777;SDS011;23615;51.506;7.678;2024-01-15T12:41:24;11.77;;;5.47;;
37777;SDS011;23615;51.506;7.678;2024-01-15T12:43:50;6.28;;;5.00;;
37777;SDS011;23615;51.506;7.678;2024-01-15T12:46:15;6.43;;;4.63;;
37777;SDS011;23615;51.506;7.678;2024-01-15T12:48:41;6.07;;;4.83;;
37777;SDS011;23615;51.506;7.678;2024-01-15T12:51:06;4.40;;;3.80;;
37777;SDS011;23615;51.506;7.678;2024-01-15T12:53:33;4.45;;;3.78;;
37777;SDS011;23615;51.506;7.678;2024-01-15T12:55:58;4.53;;;3.70;;
37777;SDS011;23615;51.506;7.678;2024-01-15T12:58:23;5.30;;;3.97;;
37777;SDS011;23615;51.506;7.678;2024-01-15T13:00:49;4.43;;;3.80;;
37777;SDS011;23615;51.506;7.678;2024-01-15T13:03:14;4.68;;;4.25;;
37777;SDS011;23615;51.506;7.678;2024-01-15T13:05:40;6.33;;;4.37;;
37777;SDS011;23615;51.506;7.678;2024-01-15T13:08:06;5.93;;;4.20;;
37777;SDS011;23615;51.506;7.678;2024-01-15T13:10:31;7.73;;;5.27;;
37777;SDS011;23615;51.506;7.678;2024-01-15T13:12:56;6.22;;;4.28;;
37777;SDS011;23615;51.506;7.678;2024-01-15T13:15:22;6.10;;;4.47;;
37777;SDS011;23615;51.506;7.678;2024-01-15T13:17:47;5.37;;;4.57;;
37777;SDS011;23615;51.506;7.678;2024-01-15T13:20:12;5.78;;;4.97;;
37777;SDS011;23615;51.506;7.678;2024-01-15T13:22:37;7.38;;;4.93;;
37777;SDS011;23615;51.506;7.678;2024-01-15T13:25:04;6.93;;;4.28;;
37777;SDS011;23615;51.506;7.678;2024-01-15T13:27:32;4.83;;;4.30;;
37777;SDS011;23615;51.506;7.678;2024-01-15T13:29:57;11.07;;;5.23;;
37777;SDS011;23615;51.506;7.678;2024-01-15T13:32:25;6.65;;;4.53;;
37777;SDS011;23615;51.506;7.678;2024-01-15T13:34:51;8.95;;;4.20;;
37777;SDS011;23615;51.506;7.678;2024-01-15T13:37:16;5.63;;;4.37;;
37777;SDS011;23615;51.506;7.678;2024-01-15T13:39:42;4.63;;;4.00;;
37777;SDS011;23615;51.506;7.678;2024-01-15T13:42:07;4.03;;;3.63;;
37777;SDS011;23615;51.506;7.678;2024-01-15T13:44:32;5.23;;;4.73;;
37777;SDS011;23615;51.506;7.678;2024-01-15T13:46:57;5.37;;;4.00;;
37777;SDS011;23615;51.506;7.678;2024-01-15T13:49:23;4.30;;;3.90;;
37777;SDS011;23615;51.506;7.678;2024-01-15T13:51:49;5.18;;;4.68;;
37777;SDS011;23615;51.506;7.678;2024-01-15T13:54:14;5.00;;;4.50;;
37777;SDS011;23615;51.506;7.678;2024-01-15T13:56:40;4.90;;;4.40;;
37777;SDS011;23615;51.506;7.678;2024-01-15T13:59:06;5.88;;;4.60;;
37777;SDS011;23615;51.506;7.678;2024-01-15T14:01:31;5.33;;;4.27;;
37777;SDS011;23615;51.506;7.678;2024-01-15T14:03:58;5.00;;;4.40;;
37777;SDS011;23615;51.506;7.678;2024-01-15T14:06:23;6.77;;;4.27;;
37777;SDS011;23615;51.506;7.678;2024-01-15T14:08:49;5.63;;;4.10;;
37777;SDS011;23615;51.506;7.678;2024-01-15T14:11:14;3.67;;;3.37;;
37777;SDS011;23615;51.506;7.678;2024-01-15T14:13:40;5.32;;;3.92;;
37777;SDS011;23615;51.506;7.678;2024-01-15T14:16:05;5.47;;;3.87;;
37777;SDS011;23615;51.506;7.678;2024-01-15T14:18:30;5.43;;;3.57;;
37777;SDS011;23615;51.506;7.678;2024-01-15T14:20:55;4.50;;;3.73;;
37777;SDS011;23615;51.506;7.678;2024-01-15T14:23:21;7.25;;;3.67;;
37777;SDS011;23615;51.506;7.678;2024-01-15T14:25:47;4.28;;;3.03;;
37777;SDS011;23615;51.506;7.678;2024-01-15T14:28:12;5.10;;;3.87;;
37777;SDS011;23615;51.506;7.678;2024-01-15T14:30:37;4.37;;;3.43;;
37777;SDS011;23615;51.506;7.678;2024-01-15T14:33:02;3.57;;;3.13;;
37777;SDS011;23615;51.506;7.678;2024-01-15T14:35:28;4.23;;;3.20;;
37777;SDS011;23615;51.506;7.678;2024-01-15T14:37:53;5.70;;;3.33;;
37777;SDS011;23615;51.506;7.678;2024-01-15T14:40:19;3.93;;;3.33;;
37777;SDS011;23615;51.506;7.678;2024-01-15T14:42:44;4.47;;;3.17;;
37777;SDS011;23615;51.506;7.678;2024-01-15T14:45:09;3.83;;;3.17;;
37777;SDS011;23615;51.506;7.678;2024-01-15T14:47:36;5.47;;;3.50;;